sensor_id;sensor_type;location;lat;lon;timestamp;pressure;altitude;pressure_sealevel;temperature;humidity
48244;BME280;34053;51.088;6.572;2023-03-23T00:00:17;99879.97;;;12.66;71.98
48244;BME280;34053;51.088;6.572;2023-03-23T00:02:49;99871.38;;;12.63;72.15
48244;BME280;34053;51.088;6.572;2023-03-23T00:05:20;99871.06;;;12.69;71.75
48244;BME280;34053;51.088;6.572;2023-03-23T00:07:50;99871.34;;;12.64;72.21
48244;BME280;34053;51.088;6.572;2023-03-23T00:10:22;99863.03;;;12.72;71.61
48244;BME280;34053;51.088;6.572;2023-03-23T00:12:54;99861.72;;;12.63;71.94
48244;BME280;34053;51.088;6.572;2023-03-23T00:15:27;99865.69;;;12.72;71.82
48244;BME280;34053;51.088;6.572;2023-03-23T00:17:57;99863.13;;;12.70;71.53
48244;BME280;34053;51.088;6.572;2023-03-23T00:20:33;99858.41;;;12.59;71.32
48244;BME280;34053;51.088;6.572;2023-03-23T00:23:10;99872.97;;;12.67;71.16
48244;BME280;34053;51.088;6.572;2023-03-23T00:25:41;99859.72;;;12.68;71.20
48244;BME280;34053;51.088;6.572;2023-03-23T00:28:11;99852.03;;;12.64;71.45
48244;BME280;34053;51.088;6.572;2023-03-23T00:30:43;99853.41;;;12.53;71.89
48244;BME280;34053;51.088;6.572;2023-03-23T00:33:14;99853.13;;;12.59;70.79
48244;BME280;34053;51.088;6.572;2023-03-23T00:35:47;99857.63;;;12.57;71.59
48244;BME280;34053;51.088;6.572;2023-03-23T00:38:17;99855.78;;;12.59;71.25
48244;BME280;34053;51.088;6.572;2023-03-23T00:40:51;99848.81;;;12.58;71.31
48244;BME280;34053;51.088;6.572;2023-03-23T00:43:24;99848.56;;;12.63;71.15
48244;BME280;34053;51.088;6.572;2023-03-23T00:45:59;99842.53;;;12.61;71.51
48244;BME280;34053;51.088;6.572;2023-03-23T00:48:38;99831.69;;;12.67;71.09
48244;BME280;34053;51.088;6.572;2023-03-23T00:51:14;99843.09;;;12.68;71.21
48244;BME280;34053;51.088;6.572;2023-03-23T00:53:46;99852.75;;;12.67;71.24
48244;BME280;34053;51.088;6.572;2023-03-23T00:56:17;99846.25;;;12.74;70.81
48244;BME280;34053;51.088;6.572;2023-03-23T00:58:47;99857.16;;;12.67;71.22
48244;BME280;34053;51.088;6.572;2023-03-23T01:01:18;99841.53;;;12.64;71.74
48244;BME280;34053;51.088;6.572;2023-03-23T01:03:48;99844.00;;;12.67;71.79
48244;BME280;34053;51.088;6.572;2023-03-23T01:06:19;99854.31;;;12.71;71.62
48244;BME280;34053;51.088;6.572;2023-03-23T01:08:51;99844.31;;;12.78;71.17
48244;BME280;34053;51.088;6.572;2023-03-23T01:11:24;99847.56;;;12.66;71.95
48244;BME280;34053;51.088;6.572;2023-03-23T01:13:55;99837.72;;;12.69;72.01
48244;BME280;34053;51.088;6.572;2023-03-23T01:16:26;99846.00;;;12.79;71.54
48244;BME280;34053;51.088;6.572;2023-03-23T01:18:56;99839.91;;;12.61;72.28
48244;BME280;34053;51.088;6.572;2023-03-23T01:21:27;99828.97;;;12.69;72.69
48244;BME280;34053;51.088;6.572;2023-03-23T01:23:57;99835.00;;;12.53;74.59
48244;BME280;34053;51.088;6.572;2023-03-23T01:26:28;99840.25;;;12.53;74.83
48244;BME280;34053;51.088;6.572;2023-03-23T01:28:59;99850.66;;;12.56;75.17
48244;BME280;34053;51.088;6.572;2023-03-23T01:31:29;99853.28;;;12.56;75.93
48244;BME280;34053;51.088;6.572;2023-03-23T01:34:00;99847.31;;;12.53;76.58
48244;BME280;34053;51.088;6.572;2023-03-23T01:36:31;99844.44;;;12.40;78.72
48244;BME280;34053;51.088;6.572;2023-03-23T01:39:04;99833.00;;;12.58;77.01
48244;BME280;34053;51.088;6.572;2023-03-23T01:41:35;99817.69;;;12.49;78.81
48244;BME280;34053;51.088;6.572;2023-03-23T01:45:06;99818.81;;;12.43;79.20
48244;BME280;34053;51.088;6.572;2023-03-23T01:46:58;99814.13;;;12.50;77.80
48244;BME280;34053;51.088;6.572;2023-03-23T01:49:34;99806.13;;;12.52;78.04
48244;BME280;34053;51.088;6.572;2023-03-23T01:52:14;99803.72;;;12.30;80.27
48244;BME280;34053;51.088;6.572;2023-03-23T01:54:50;99779.00;;;12.51;77.97
48244;BME280;34053;51.088;6.572;2023-03-23T01:57:25;99765.38;;;12.43;79.37
48244;BME280;34053;51.088;6.572;2023-03-23T02:00:04;99762.66;;;12.44;79.25
48244;BME280;34053;51.088;6.572;2023-03-23T02:02:46;99765.88;;;12.32;79.91
48244;BME280;34053;51.088;6.572;2023-03-23T02:05:24;99785.31;;;12.30;79.86
48244;BME280;34053;51.088;6.572;2023-03-23T02:07:59;99778.41;;;12.27;80.07
48244;BME280;34053;51.088;6.572;2023-03-23T02:10:33;99767.81;;;12.28;79.60
48244;BME280;34053;51.088;6.572;2023-03-23T02:13:07;99775.34;;;12.36;79.12
48244;BME280;34053;51.088;6.572;2023-03-23T02:30:18;99736.25;;;12.46;76.73
48244;BME280;34053;51.088;6.572;2023-03-23T02:35:28;99750.44;;;12.43;76.66
48244;BME280;34053;51.088;6.572;2023-03-23T02:38:15;99758.22;;;12.45;76.72
48244;BME280;34053;51.088;6.572;2023-03-23T02:40:49;99768.69;;;12.29;77.52
48244;BME280;34053;51.088;6.572;2023-03-23T02:43:22;99768.81;;;12.26;77.23
48244;BME280;34053;51.088;6.572;2023-03-23T02:45:55;99770.91;;;12.37;76.22
48244;BME280;34053;51.088;6.572;2023-03-23T02:48:29;99778.44;;;12.44;75.84
48244;BME280;34053;51.088;6.572;2023-03-23T02:51:01;99782.63;;;12.31;76.53
48244;BME280;34053;51.088;6.572;2023-03-23T02:53:34;99779.38;;;12.43;75.94
48244;BME280;34053;51.088;6.572;2023-03-23T02:56:08;99769.53;;;12.30;76.96
48244;BME280;34053;51.088;6.572;2023-03-23T02:58:39;99761.25;;;12.20;77.06
48244;BME280;34053;51.088;6.572;2023-03-23T03:01:45;99766.09;;;12.27;76.78
48244;BME280;34053;51.088;6.572;2023-03-23T03:04:12;99775.09;;;12.23;76.60
48244;BME280;34053;51.088;6.572;2023-03-23T03:10:01;99750.94;;;12.15;77.39
48244;BME280;34053;51.088;6.572;2023-03-23T03:20:32;99768.44;;;12.16;76.79
48244;BME280;34053;51.088;6.572;2023-03-23T03:23:05;99768.25;;;12.19;76.94
48244;BME280;34053;51.088;6.572;2023-03-23T03:25:39;99761.22;;;12.02;77.87
48244;BME280;34053;51.088;6.572;2023-03-23T03:28:12;99751.69;;;12.00;78.33
48244;BME280;34053;51.088;6.572;2023-03-23T03:30:44;99755.94;;;12.02;77.70
48244;BME280;34053;51.088;6.572;2023-03-23T03:33:17;99753.94;;;12.07;77.87
48244;BME280;34053;51.088;6.572;2023-03-23T03:35:48;99763.53;;;12.08;77.92
48244;BME280;34053;51.088;6.572;2023-03-23T03:38:18;99761.78;;;12.09;77.51
48244;BME280;34053;51.088;6.572;2023-03-23T03:40:50;99753.09;;;12.07;77.60
48244;BME280;34053;51.088;6.572;2023-03-23T03:43:21;99762.47;;;12.12;77.38
48244;BME280;34053;51.088;6.572;2023-03-23T03:45:52;99761.38;;;12.17;77.08
48244;BME280;34053;51.088;6.572;2023-03-23T03:48:22;99745.06;;;12.10;77.60
48244;BME280;34053;51.088;6.572;2023-03-23T03:50:53;99745.69;;;12.15;76.85
48244;BME280;34053;51.088;6.572;2023-03-23T03:53:27;99752.78;;;12.13;76.94
48244;BME280;34053;51.088;6.572;2023-03-23T03:55:57;99746.84;;;12.09;76.87
48244;BME280;34053;51.088;6.572;2023-03-23T03:58:30;99753.09;;;12.07;77.08
48244;BME280;34053;51.088;6.572;2023-03-23T04:01:02;99756.53;;;12.09;77.05
48244;BME280;34053;51.088;6.572;2023-03-23T04:03:33;99759.28;;;12.06;76.95
48244;BME280;34053;51.088;6.572;2023-03-23T04:06:04;99754.94;;;12.05;76.73
48244;BME280;34053;51.088;6.572;2023-03-23T04:08:36;99754.25;;;12.01;76.82
48244;BME280;34053;51.088;6.572;2023-03-23T04:11:12;99748.78;;;12.06;76.81
48244;BME280;34053;51.088;6.572;2023-03-23T04:13:44;99745.81;;;12.12;76.07
48244;BME280;34053;51.088;6.572;2023-03-23T04:16:14;99749.38;;;12.11;76.23
48244;BME280;34053;51.088;6.572;2023-03-23T04:18:47;99755.59;;;12.10;75.91
48244;BME280;34053;51.088;6.572;2023-03-23T04:21:18;99748.31;;;12.15;75.73
48244;BME280;34053;51.088;6.572;2023-03-23T04:23:48;99751.19;;;12.10;76.16
48244;BME280;34053;51.088;6.572;2023-03-23T04:26:19;99748.19;;;12.18;75.44
48244;BME280;34053;51.088;6.572;2023-03-23T04:28:49;99752.97;;;12.10;76.15
48244;BME280;34053;51.088;6.572;2023-03-23T04:31:21;99765.94;;;12.13;76.06
48244;BME280;34053;51.088;6.572;2023-03-23T04:33:54;99773.91;;;12.11;76.41
48244;BME280;34053;51.088;6.572;2023-03-23T04:36:25;99765.03;;;12.14;75.60
48244;BME280;34053;51.088;6.572;2023-03-23T04:38:55;99774.53;;;12.17;75.24
48244;BME280;34053;51.088;6.572;2023-03-23T04:41:26;99785.22;;;12.14;75.34
48244;BME280;34053;51.088;6.572;2023-03-23T04:43:56;99775.69;;;12.11;75.57
48244;BME280;34053;51.088;6.572;2023-03-23T04:46:34;99786.38;;;12.08;75.74
48244;BME280;34053;51.088;6.572;2023-03-23T04:49:05;99792.41;;;12.10;75.66
48244;BME280;34053;51.088;6.572;2023-03-23T04:51:35;99796.09;;;12.06;75.78
48244;BME280;34053;51.088;6.572;2023-03-23T04:54:06;99779.53;;;12.04;75.27
48244;BME280;34053;51.088;6.572;2023-03-23T04:56:37;99793.75;;;12.00;75.53
48244;BME280;34053;51.088;6.572;2023-03-23T04:59:11;99796.88;;;12.08;75.55
48244;BME280;34053;51.088;6.572;2023-03-23T05:01:43;99792.84;;;12.01;75.30
48244;BME280;34053;51.088;6.572;2023-03-23T05:04:15;99794.47;;;12.03;75.16
48244;BME280;34053;51.088;6.572;2023-03-23T05:06:46;99792.41;;;12.10;75.07
48244;BME280;34053;51.088;6.572;2023-03-23T05:09:17;99785.09;;;11.98;75.39
48244;BME280;34053;51.088;6.572;2023-03-23T05:11:47;99793.31;;;12.09;75.28
48244;BME280;34053;51.088;6.572;2023-03-23T05:14:18;99797.88;;;12.05;75.41
48244;BME280;34053;51.088;6.572;2023-03-23T05:16:48;99785.88;;;12.00;75.40
48244;BME280;34053;51.088;6.572;2023-03-23T05:19:19;99785.56;;;12.06;75.46
48244;BME280;34053;51.088;6.572;2023-03-23T05:21:49;99805.06;;;12.02;75.29
48244;BME280;34053;51.088;6.572;2023-03-23T05:24:20;99796.22;;;12.03;75.09
48244;BME280;34053;51.088;6.572;2023-03-23T05:26:50;99799.66;;;12.05;74.83
48244;BME280;34053;51.088;6.572;2023-03-23T05:29:22;99802.69;;;11.95;74.80
48244;BME280;34053;51.088;6.572;2023-03-23T05:31:54;99799.13;;;11.96;74.98
48244;BME280;34053;51.088;6.572;2023-03-23T05:34:26;99800.44;;;11.88;74.97
48244;BME280;34053;51.088;6.572;2023-03-23T05:36:56;99811.78;;;11.88;75.23
48244;BME280;34053;51.088;6.572;2023-03-23T05:39:30;99811.25;;;12.01;74.65
48244;BME280;34053;51.088;6.572;2023-03-23T05:42:02;99810.78;;;11.91;74.29
48244;BME280;34053;51.088;6.572;2023-03-23T05:44:33;99817.75;;;11.92;74.03
48244;BME280;34053;51.088;6.572;2023-03-23T05:47:03;99805.31;;;11.95;73.92
48244;BME280;34053;51.088;6.572;2023-03-23T05:49:34;99807.00;;;11.98;73.69
48244;BME280;34053;51.088;6.572;2023-03-23T05:52:06;99816.00;;;11.92;73.94
48244;BME280;34053;51.088;6.572;2023-03-23T05:54:37;99815.06;;;11.93;74.02
48244;BME280;34053;51.088;6.572;2023-03-23T05:57:08;99821.25;;;11.92;73.89
48244;BME280;34053;51.088;6.572;2023-03-23T05:59:38;99821.50;;;11.86;74.22
48244;BME280;34053;51.088;6.572;2023-03-23T06:02:10;99820.75;;;12.03;73.56
48244;BME280;34053;51.088;6.572;2023-03-23T06:04:41;99823.78;;;11.94;73.25
48244;BME280;34053;51.088;6.572;2023-03-23T06:07:12;99828.25;;;11.92;73.15
48244;BME280;34053;51.088;6.572;2023-03-23T06:09:44;99829.56;;;11.83;73.87
48244;BME280;34053;51.088;6.572;2023-03-23T06:12:15;99828.25;;;11.92;73.35
48244;BME280;34053;51.088;6.572;2023-03-23T06:14:46;99835.03;;;11.98;73.37
48244;BME280;34053;51.088;6.572;2023-03-23T06:17:17;99839.66;;;11.92;73.23
48244;BME280;34053;51.088;6.572;2023-03-23T06:19:48;99842.19;;;11.94;73.30
48244;BME280;34053;51.088;6.572;2023-03-23T06:22:20;99842.78;;;12.01;72.84
48244;BME280;34053;51.088;6.572;2023-03-23T06:24:51;99834.81;;;12.02;72.92
48244;BME280;34053;51.088;6.572;2023-03-23T06:27:23;99844.72;;;11.95;73.28
48244;BME280;34053;51.088;6.572;2023-03-23T06:29:54;99833.19;;;12.00;72.99
48244;BME280;34053;51.088;6.572;2023-03-23T06:32:28;99841.00;;;12.01;72.84
48244;BME280;34053;51.088;6.572;2023-03-23T06:35:00;99835.53;;;12.06;72.23
48244;BME280;34053;51.088;6.572;2023-03-23T06:37:32;99837.94;;;11.91;72.87
48244;BME280;34053;51.088;6.572;2023-03-23T06:40:03;99843.81;;;11.96;72.89
48244;BME280;34053;51.088;6.572;2023-03-23T06:42:38;99842.94;;;11.98;73.11
48244;BME280;34053;51.088;6.572;2023-03-23T06:45:08;99842.63;;;12.04;72.81
48244;BME280;34053;51.088;6.572;2023-03-23T06:47:39;99842.63;;;12.04;72.54
48244;BME280;34053;51.088;6.572;2023-03-23T06:50:09;99856.69;;;12.03;72.45
48244;BME280;34053;51.088;6.572;2023-03-23T06:52:41;99859.78;;;12.12;72.62
48244;BME280;34053;51.088;6.572;2023-03-23T06:55:16;99863.09;;;12.16;72.82
48244;BME280;34053;51.088;6.572;2023-03-23T06:57:50;99855.44;;;12.11;72.63
48244;BME280;34053;51.088;6.572;2023-03-23T07:00:20;99856.44;;;12.09;72.47
48244;BME280;34053;51.088;6.572;2023-03-23T07:02:51;99859.69;;;12.14;72.72
48244;BME280;34053;51.088;6.572;2023-03-23T07:05:22;99862.53;;;12.09;72.88
48244;BME280;34053;51.088;6.572;2023-03-23T07:07:53;99857.44;;;12.06;72.73
48244;BME280;34053;51.088;6.572;2023-03-23T07:10:23;99859.56;;;12.17;72.22
48244;BME280;34053;51.088;6.572;2023-03-23T07:12:54;99864.66;;;12.20;72.62
48244;BME280;34053;51.088;6.572;2023-03-23T07:15:24;99866.53;;;12.18;72.07
48244;BME280;34053;51.088;6.572;2023-03-23T07:17:55;99858.84;;;12.14;72.32
48244;BME280;34053;51.088;6.572;2023-03-23T07:20:26;99857.53;;;12.22;71.74
48244;BME280;34053;51.088;6.572;2023-03-23T07:22:57;99857.53;;;12.22;72.04
48244;BME280;34053;51.088;6.572;2023-03-23T07:25:27;99871.31;;;12.27;71.31
48244;BME280;34053;51.088;6.572;2023-03-23T07:27:59;99857.09;;;12.32;70.77
48244;BME280;34053;51.088;6.572;2023-03-23T07:30:30;99860.97;;;12.24;70.56
48244;BME280;34053;51.088;6.572;2023-03-23T07:33:06;99858.81;;;12.33;70.29
48244;BME280;34053;51.088;6.572;2023-03-23T07:35:37;99864.88;;;12.35;70.13
48244;BME280;34053;51.088;6.572;2023-03-23T07:38:08;99858.34;;;12.24;70.35
48244;BME280;34053;51.088;6.572;2023-03-23T07:40:39;99868.78;;;12.26;70.41
48244;BME280;34053;51.088;6.572;2023-03-23T07:43:09;99865.91;;;12.31;69.75
48244;BME280;34053;51.088;6.572;2023-03-23T07:45:40;99868.69;;;12.27;70.04
48244;BME280;34053;51.088;6.572;2023-03-23T07:48:10;99858.66;;;12.36;69.88
48244;BME280;34053;51.088;6.572;2023-03-23T07:50:42;99864.88;;;12.35;69.73
48244;BME280;34053;51.088;6.572;2023-03-23T07:53:15;99862.06;;;12.38;69.65
48244;BME280;34053;51.088;6.572;2023-03-23T07:55:46;99866.63;;;12.34;69.58
48244;BME280;34053;51.088;6.572;2023-03-23T07:58:26;99866.19;;;12.43;69.89
48244;BME280;34053;51.088;6.572;2023-03-23T08:01:00;99866.03;;;12.47;69.23
48244;BME280;34053;51.088;6.572;2023-03-23T08:03:45;99875.88;;;12.43;69.37
48244;BME280;34053;51.088;6.572;2023-03-23T08:06:15;99873.75;;;12.50;69.30
48244;BME280;34053;51.088;6.572;2023-03-23T08:08:46;99870.91;;;12.54;69.31
48244;BME280;34053;51.088;6.572;2023-03-23T08:11:17;99869.16;;;12.55;69.21
48244;BME280;34053;51.088;6.572;2023-03-23T08:13:48;99863.81;;;12.56;69.10
48244;BME280;34053;51.088;6.572;2023-03-23T08:16:19;99875.94;;;12.59;68.58
48244;BME280;34053;51.088;6.572;2023-03-23T08:18:50;99876.13;;;12.56;68.65
48244;BME280;34053;51.088;6.572;2023-03-23T08:21:21;99873.41;;;12.57;68.80
48244;BME280;34053;51.088;6.572;2023-03-23T08:23:52;99872.88;;;12.68;68.45
48244;BME280;34053;51.088;6.572;2023-03-23T08:26:22;99886.47;;;12.59;67.80
48244;BME280;34053;51.088;6.572;2023-03-23T08:28:53;99887.25;;;12.61;68.02
48244;BME280;34053;51.088;6.572;2023-03-23T08:31:23;99883.41;;;12.68;67.63
48244;BME280;34053;51.088;6.572;2023-03-23T08:33:54;99891.59;;;12.62;67.97
48244;BME280;34053;51.088;6.572;2023-03-23T08:36:26;99893.00;;;12.69;67.24
48244;BME280;34053;51.088;6.572;2023-03-23T08:38:58;99897.03;;;12.77;66.78
48244;BME280;34053;51.088;6.572;2023-03-23T08:41:29;99898.66;;;12.79;68.08
48244;BME280;34053;51.088;6.572;2023-03-23T08:44:00;99897.66;;;12.82;67.86
48244;BME280;34053;51.088;6.572;2023-03-23T08:46:31;99908.72;;;12.88;67.72
48244;BME280;34053;51.088;6.572;2023-03-23T08:49:02;99913.31;;;12.85;67.28
48244;BME280;34053;51.088;6.572;2023-03-23T08:51:33;99919.66;;;12.81;67.21
48244;BME280;34053;51.088;6.572;2023-03-23T08:54:03;99909.59;;;12.89;66.65
48244;BME280;34053;51.088;6.572;2023-03-23T08:56:34;99911.84;;;12.97;67.26
48244;BME280;34053;51.088;6.572;2023-03-23T08:59:04;99911.69;;;13.00;66.77
48244;BME280;34053;51.088;6.572;2023-03-23T09:01:35;99903.16;;;12.95;66.64
48244;BME280;34053;51.088;6.572;2023-03-23T09:04:05;99903.56;;;13.04;66.13
48244;BME280;34053;51.088;6.572;2023-03-23T09:06:36;99911.84;;;12.97;65.93
48244;BME280;34053;51.088;6.572;2023-03-23T09:09:06;99911.84;;;12.97;65.88
48244;BME280;34053;51.088;6.572;2023-03-23T09:11:37;99901.16;;;13.00;66.10
48244;BME280;34053;51.088;6.572;2023-03-23T09:14:08;99906.13;;;13.06;66.15
48244;BME280;34053;51.088;6.572;2023-03-23T09:16:38;99905.97;;;13.09;65.70
48244;BME280;34053;51.088;6.572;2023-03-23T09:19:10;99898.22;;;13.06;65.38
48244;BME280;34053;51.088;6.572;2023-03-23T09:21:41;99893.88;;;13.05;65.63
48244;BME280;34053;51.088;6.572;2023-03-23T09:24:12;99909.53;;;13.08;66.00
48244;BME280;34053;51.088;6.572;2023-03-23T09:26:42;99914.78;;;13.08;65.61
48244;BME280;34053;51.088;6.572;2023-03-23T09:29:13;99922.00;;;13.04;65.00
48244;BME280;34053;51.088;6.572;2023-03-23T09:31:44;99926.88;;;13.12;65.38
48244;BME280;34053;51.088;6.572;2023-03-23T09:34:16;99925.63;;;13.02;64.73
48244;BME280;34053;51.088;6.572;2023-03-23T09:36:47;99929.97;;;13.03;64.97
48244;BME280;34053;51.088;6.572;2023-03-23T09:39:18;99926.09;;;12.93;65.44
48244;BME280;34053;51.088;6.572;2023-03-23T09:42:14;99931.38;;;12.93;65.79
48244;BME280;34053;51.088;6.572;2023-03-23T09:44:57;99925.47;;;12.87;65.98
48244;BME280;34053;51.088;6.572;2023-03-23T09:50:15;99918.50;;;13.04;66.26
48244;BME280;34053;51.088;6.572;2023-03-23T09:53:00;99914.94;;;13.05;66.52
48244;BME280;34053;51.088;6.572;2023-03-23T09:55:31;99922.06;;;13.03;66.99
48244;BME280;34053;51.088;6.572;2023-03-23T09:58:30;99916.09;;;12.99;66.92
48244;BME280;34053;51.088;6.572;2023-03-23T10:01:27;99933.00;;;12.95;67.74
48244;BME280;34053;51.088;6.572;2023-03-23T10:04:31;99943.66;;;12.92;67.84
48244;BME280;34053;51.088;6.572;2023-03-23T10:07:22;99933.53;;;12.84;69.30
48244;BME280;34053;51.088;6.572;2023-03-23T10:09:55;99947.97;;;12.75;69.08
48244;BME280;34053;51.088;6.572;2023-03-23T10:12:48;99951.53;;;12.74;70.29
48244;BME280;34053;51.088;6.572;2023-03-23T10:15:25;99963.03;;;12.35;72.07
48244;BME280;34053;51.088;6.572;2023-03-23T10:18:00;99971.81;;;12.53;72.32
48244;BME280;34053;51.088;6.572;2023-03-23T10:20:46;99972.22;;;12.26;75.17
48244;BME280;34053;51.088;6.572;2023-03-23T10:28:44;99969.28;;;12.33;75.46
48244;BME280;34053;51.088;6.572;2023-03-23T10:31:22;99980.31;;;12.41;75.02
48244;BME280;34053;51.088;6.572;2023-03-23T10:33:57;99986.50;;;12.40;74.99
48244;BME280;34053;51.088;6.572;2023-03-23T10:36:34;99983.94;;;12.57;74.04
48244;BME280;34053;51.088;6.572;2023-03-23T10:39:19;99978.66;;;12.19;76.81
48244;BME280;34053;51.088;6.572;2023-03-23T10:41:50;99973.56;;;11.95;78.70
48244;BME280;34053;51.088;6.572;2023-03-23T10:44:23;99990.94;;;12.00;78.07
48244;BME280;34053;51.088;6.572;2023-03-23T10:47:07;99984.06;;;11.95;78.68
48244;BME280;34053;51.088;6.572;2023-03-23T10:49:42;99982.84;;;12.04;78.67
48244;BME280;34053;51.088;6.572;2023-03-23T10:52:33;99984.59;;;12.04;78.32
48244;BME280;34053;51.088;6.572;2023-03-23T10:55:12;99982.78;;;12.06;78.47
48244;BME280;34053;51.088;6.572;2023-03-23T10:57:46;99983.78;;;12.22;77.19
48244;BME280;34053;51.088;6.572;2023-03-23T11:00:23;99984.06;;;12.16;77.98
48244;BME280;34053;51.088;6.572;2023-03-23T11:05:34;100005.69;;;12.23;77.11
48244;BME280;34053;51.088;6.572;2023-03-23T11:08:13;100016.53;;;11.94;79.10
48244;BME280;34053;51.088;6.572;2023-03-23T11:10:52;100021.50;;;11.61;80.20
48244;BME280;34053;51.088;6.572;2023-03-23T11:13:30;100015.25;;;11.84;78.88
48244;BME280;34053;51.088;6.572;2023-03-23T11:16:00;100001.81;;;12.11;76.58
48244;BME280;34053;51.088;6.572;2023-03-23T11:18:36;99992.03;;;12.34;75.45
48244;BME280;34053;51.088;6.572;2023-03-23T11:21:08;99995.31;;;12.39;74.78
48244;BME280;34053;51.088;6.572;2023-03-23T11:23:50;99996.88;;;12.43;74.45
48244;BME280;34053;51.088;6.572;2023-03-23T11:26:29;99996.88;;;12.43;74.40
48244;BME280;34053;51.088;6.572;2023-03-23T11:29:11;99999.78;;;12.37;75.67
48244;BME280;34053;51.088;6.572;2023-03-23T11:31:48;99996.72;;;12.46;74.75
48244;BME280;34053;51.088;6.572;2023-03-23T11:34:41;100003.81;;;12.44;76.74
48244;BME280;34053;51.088;6.572;2023-03-23T11:37:41;100000.16;;;12.48;75.55
48244;BME280;34053;51.088;6.572;2023-03-23T11:40:16;99992.88;;;12.53;74.94
48244;BME280;34053;51.088;6.572;2023-03-23T11:43:07;99989.75;;;12.45;76.35
48244;BME280;34053;51.088;6.572;2023-03-23T11:45:50;99992.66;;;12.58;76.53
48244;BME280;34053;51.088;6.572;2023-03-23T11:51:50;99981.50;;;12.72;76.95
48244;BME280;34053;51.088;6.572;2023-03-23T11:54:35;99986.31;;;12.81;76.42
48244;BME280;34053;51.088;6.572;2023-03-23T11:57:11;99977.31;;;12.85;78.45
48244;BME280;34053;51.088;6.572;2023-03-23T11:59:43;99968.38;;;12.89;77.02
48244;BME280;34053;51.088;6.572;2023-03-23T12:05:18;99981.00;;;13.00;78.15
48244;BME280;34053;51.088;6.572;2023-03-23T12:13:52;99971.50;;;13.15;80.91
48244;BME280;34053;51.088;6.572;2023-03-23T12:19:45;99969.03;;;13.47;79.91
48244;BME280;34053;51.088;6.572;2023-03-23T12:28:42;99978.19;;;13.58;79.59
48244;BME280;34053;51.088;6.572;2023-03-23T12:31:35;99981.09;;;13.69;78.80
48244;BME280;34053;51.088;6.572;2023-03-23T12:48:35;99967.88;;;13.71;79.68
48244;BME280;34053;51.088;6.572;2023-03-23T12:51:35;99970.88;;;13.63;80.04
48244;BME280;34053;51.088;6.572;2023-03-23T12:55:13;99968.47;;;13.76;79.95
48244;BME280;34053;51.088;6.572;2023-03-23T13:03:04;99962.56;;;13.88;78.90
48244;BME280;34053;51.088;6.572;2023-03-23T13:05:49;99968.53;;;13.92;78.38
48244;BME280;34053;51.088;6.572;2023-03-23T13:08:32;99953.59;;;14.08;77.72
48244;BME280;34053;51.088;6.572;2023-03-23T13:11:10;99949.47;;;14.03;77.48
48244;BME280;34053;51.088;6.572;2023-03-23T13:13:54;99938.41;;;13.96;77.23
48244;BME280;34053;51.088;6.572;2023-03-23T13:16:45;99939.56;;;13.90;77.20
48244;BME280;34053;51.088;6.572;2023-03-23T13:22:07;99961.41;;;13.76;78.33
48244;BME280;34053;51.088;6.572;2023-03-23T13:24:46;99963.78;;;13.81;77.55
48244;BME280;34053;51.088;6.572;2023-03-23T13:27:17;99968.25;;;13.63;78.15
48244;BME280;34053;51.088;6.572;2023-03-23T13:29:47;99956.50;;;13.86;77.33
48244;BME280;34053;51.088;6.572;2023-03-23T13:32:19;99952.97;;;13.69;78.16
48244;BME280;34053;51.088;6.572;2023-03-23T13:34:51;99963.88;;;13.27;75.03
48244;BME280;34053;51.088;6.572;2023-03-23T13:37:26;99967.63;;;13.22;76.58
48244;BME280;34053;51.088;6.572;2023-03-23T13:40:16;99978.03;;;13.26;75.65
48244;BME280;34053;51.088;6.572;2023-03-23T13:42:52;99981.75;;;13.39;74.52
48244;BME280;34053;51.088;6.572;2023-03-23T13:45:24;99984.59;;;13.34;74.77
48244;BME280;34053;51.088;6.572;2023-03-23T13:50:57;99993.03;;;13.23;74.59
48244;BME280;34053;51.088;6.572;2023-03-23T13:53:45;99988.09;;;13.17;75.49
48244;BME280;34053;51.088;6.572;2023-03-23T13:56:39;99985.59;;;13.14;75.56
48244;BME280;34053;51.088;6.572;2023-03-23T13:59:16;99997.13;;;13.12;75.65
48244;BME280;34053;51.088;6.572;2023-03-23T14:01:47;99991.41;;;13.03;75.37
48244;BME280;34053;51.088;6.572;2023-03-23T14:04:19;99987.19;;;12.99;76.42
48244;BME280;34053;51.088;6.572;2023-03-23T14:06:50;99982.16;;;12.95;76.98
48244;BME280;34053;51.088;6.572;2023-03-23T14:09:39;99988.09;;;13.17;76.33
48244;BME280;34053;51.088;6.572;2023-03-23T14:12:28;99964.84;;;13.26;76.69
48244;BME280;34053;51.088;6.572;2023-03-23T14:15:01;99958.16;;;13.36;76.49
48244;BME280;34053;51.088;6.572;2023-03-23T14:17:41;99952.13;;;13.34;75.64
48244;BME280;34053;51.088;6.572;2023-03-23T14:20:25;99948.97;;;13.45;75.36
48244;BME280;34053;51.088;6.572;2023-03-23T14:22:56;99958.28;;;13.52;75.74
48244;BME280;34053;51.088;6.572;2023-03-23T14:25:30;99961.91;;;13.49;75.34
48244;BME280;34053;51.088;6.572;2023-03-23T14:28:03;99969.47;;;13.38;75.01
48244;BME280;34053;51.088;6.572;2023-03-23T14:30:35;99989.03;;;13.34;74.48
48244;BME280;34053;51.088;6.572;2023-03-23T14:33:10;99991.47;;;13.37;77.24
48244;BME280;34053;51.088;6.572;2023-03-23T14:35:43;99995.50;;;13.27;78.14
48244;BME280;34053;51.088;6.572;2023-03-23T14:38:17;100002.78;;;13.21;78.28
48244;BME280;34053;51.088;6.572;2023-03-23T14:40:49;99992.78;;;13.11;79.40
48244;BME280;34053;51.088;6.572;2023-03-23T14:43:21;99988.63;;;12.87;79.54
48244;BME280;34053;51.088;6.572;2023-03-23T14:45:54;99988.19;;;12.97;78.63
48244;BME280;34053;51.088;6.572;2023-03-23T14:48:26;99990.56;;;12.84;79.28
48244;BME280;34053;51.088;6.572;2023-03-23T14:51:04;99997.09;;;12.94;79.56
48244;BME280;34053;51.088;6.572;2023-03-23T14:53:39;99995.75;;;12.85;80.67
48244;BME280;34053;51.088;6.572;2023-03-23T14:56:15;99965.66;;;12.91;81.05
48244;BME280;34053;51.088;6.572;2023-03-23T14:58:47;99953.75;;;13.01;81.51
48244;BME280;34053;51.088;6.572;2023-03-23T15:01:21;99934.78;;;13.30;81.10
48244;BME280;34053;51.088;6.572;2023-03-23T15:03:57;99936.66;;;13.45;79.02